PWT weather

Bremerton National Airport
Bremerton, Washington, United States

Public forecast

Using degrees Fahrenheit for public forecast. Weather courtesy of forecast.io.

Current aviation weather report (METAR) for Bremerton National Airport

Retrieved 2019/10/17 22:15 UTC (20 minutes ago):

KPWT 172215Z AUTO 19010G18KT 10SM BKN007 BKN017 OVC024 12/11 A2967 RMK AO2 CIG 005V010 PNO

Aviation forecast (TAF) for Bremerton National Airport

Retrieved 2019/10/17 18:33 UTC (4 hours ago):

TAF KPWT 171732Z 1718/1818 19010KT P6SM -RA BKN008 OVC020 FM172100 17013G20KT P6SM -RA SCT010 OVC025 TEMPO 1722/1802 3SM RA BR OVC010 FM180300 20008KT 4SM -RA BR OVC010 FM180800 19006KT 4SM BR VCSH OVC007